Time;durP1;ratioP1;P1;durP2;ratioP2;P2;SDS_P1;SDS_P2;PMS_P1;PMS_P2;Temp;Humidity;BMP_temperature;BMP_pressure;BME280_temperature;BME280_humidity;BME280_pressure;Samples;Min_cycle;Max_cycle;Signal;HPM_P1;HPM_P2
2021/10/16 00:01:17;;;;;;;1.08;0.20;;;;;;;;;;5032963;28;20472;-65
2021/10/16 00:03:42;;;;;;;0.55;0.25;;;;;;;;;;5032965;28;20067;-65
2021/10/16 00:06:07;;;;;;;0.28;0.10;;;;;;;;;;5032928;28;20372;-66
2021/10/16 00:08:33;;;;;;;0.63;0.25;;;;;;;;;;5032901;28;20473;-64
2021/10/16 00:10:58;;;;;;;0.32;0.20;;;;;;;;;;5031606;28;20064;-64
2021/10/16 00:13:24;;;;;;;0.33;0.30;;;;;;;;;;5032696;28;20022;-64
2021/10/16 00:15:50;;;;;;;0.50;0.32;;;;;;;;;;5032974;28;20251;-65
2021/10/16 00:18:15;;;;;;;0.38;0.20;;;;;;;;;;5032795;28;20480;-65
2021/10/16 00:20:42;;;;;;;0.75;0.20;;;;;;;;;;5032917;28;20029;-65
2021/10/16 00:23:07;;;;;;;1.75;0.30;;;;;;;;;;5032820;28;20021;-65
2021/10/16 00:25:34;;;;;;;0.45;0.32;;;;;;;;;;5032883;28;20017;-65
2021/10/16 00:27:59;;;;;;;0.43;0.10;;;;;;;;;;5033046;28;20096;-66
2021/10/16 00:30:24;;;;;;;0.20;0.08;;;;;;;;;;5032417;28;20116;-65
2021/10/16 00:32:49;;;;;;;0.53;0.17;;;;;;;;;;5032845;28;20047;-65
2021/10/16 00:35:16;;;;;;;0.45;0.10;;;;;;;;;;5032743;28;20247;-66
2021/10/16 00:37:41;;;;;;;0.30;0.20;;;;;;;;;;5032515;28;20036;-65
2021/10/16 00:40:07;;;;;;;0.20;0.20;;;;;;;;;;5032728;28;20021;-65
2021/10/16 00:42:41;;;;;;;2.00;0.25;;;;;;;;;;5032548;28;20105;-65
2021/10/16 00:45:07;;;;;;;0.80;0.15;;;;;;;;;;5032638;28;20457;-66
2021/10/16 00:47:32;;;;;;;0.95;0.10;;;;;;;;;;5036044;28;20029;-65
2021/10/16 00:49:57;;;;;;;0.82;0.10;;;;;;;;;;5036319;28;20495;-65
2021/10/16 00:52:22;;;;;;;0.05;0.05;;;;;;;;;;5036113;28;20075;-65
2021/10/16 00:54:47;;;;;;;0.57;0.20;;;;;;;;;;5036217;28;20025;-65
2021/10/16 00:57:13;;;;;;;0.37;0.10;;;;;;;;;;5036034;28;20373;-65
2021/10/16 00:59:38;;;;;;;0.17;0.10;;;;;;;;;;5036051;28;20338;-65
2021/10/16 01:02:03;;;;;;;0.43;0.00;;;;;;;;;;5035649;28;20049;-66
2021/10/16 01:04:28;;;;;;;0.20;0.10;;;;;;;;;;5035845;28;20373;-65
2021/10/16 01:06:55;;;;;;;0.75;0.30;;;;;;;;;;5035984;28;20247;-65
2021/10/16 01:09:20;;;;;;;1.13;0.00;;;;;;;;;;5035576;28;20025;-65
2021/10/16 01:11:48;;;;;;;0.38;0.22;;;;;;;;;;5035774;28;20147;-65
2021/10/16 01:14:14;;;;;;;0.30;0.10;;;;;;;;;;5035650;28;20159;-65
2021/10/16 01:16:41;;;;;;;2.33;0.30;;;;;;;;;;5035824;28;20052;-65
2021/10/16 01:19:11;;;;;;;0.38;0.20;;;;;;;;;;5035546;28;20013;-65
2021/10/16 01:21:41;;;;;;;1.55;0.10;;;;;;;;;;5035394;28;20485;-65
2021/10/16 01:24:07;;;;;;;0.22;0.10;;;;;;;;;;5035448;28;20022;-65
2021/10/16 01:26:32;;;;;;;0.77;0.17;;;;;;;;;;5035246;28;20065;-65
2021/10/16 01:28:58;;;;;;;0.73;0.43;;;;;;;;;;5035447;28;20049;-65
2021/10/16 01:31:24;;;;;;;0.08;0.08;;;;;;;;;;5035334;28;20097;-65
2021/10/16 01:33:49;;;;;;;0.50;0.20;;;;;;;;;;5035358;28;20070;-65
2021/10/16 01:36:14;;;;;;;1.30;0.20;;;;;;;;;;5035305;28;20541;-65
2021/10/16 01:38:41;;;;;;;1.40;0.17;;;;;;;;;;5033980;28;20025;-65
2021/10/16 01:41:06;;;;;;;0.20;0.10;;;;;;;;;;5035348;28;20255;-66
2021/10/16 01:43:32;;;;;;;0.80;0.10;;;;;;;;;;5034844;28;20025;-65
2021/10/16 01:45:57;;;;;;;0.20;0.17;;;;;;;;;;5035025;28;20301;-65
2021/10/16 01:48:23;;;;;;;0.90;0.38;;;;;;;;;;5033871;28;20021;-65
2021/10/16 01:50:50;;;;;;;0.90;0.40;;;;;;;;;;5035215;28;20025;-65
2021/10/16 01:53:16;;;;;;;0.20;0.10;;;;;;;;;;5035111;28;20029;-65
2021/10/16 01:55:41;;;;;;;0.10;0.00;;;;;;;;;;5035039;28;20644;-65
2021/10/16 01:58:10;;;;;;;0.10;0.10;;;;;;;;;;5034138;28;20025;-66
2021/10/16 02:00:36;;;;;;;0.38;0.20;;;;;;;;;;5033374;28;20014;-65
2021/10/16 02:03:06;;;;;;;0.20;0.10;;;;;;;;;;5034759;28;20044;-66
2021/10/16 02:05:32;;;;;;;0.10;0.05;;;;;;;;;;5034274;28;20112;-65
2021/10/16 02:07:58;;;;;;;0.43;0.10;;;;;;;;;;5034501;28;20132;-64
2021/10/16 02:10:24;;;;;;;0.93;0.10;;;;;;;;;;5032859;28;20907;-65
2021/10/16 02:12:49;;;;;;;0.30;0.20;;;;;;;;;;5034556;28;20037;-65
2021/10/16 02:15:14;;;;;;;0.22;0.22;;;;;;;;;;5033248;28;20430;-65
2021/10/16 02:17:40;;;;;;;0.68;0.13;;;;;;;;;;5034195;28;20113;-65
2021/10/16 02:20:06;;;;;;;1.80;0.30;;;;;;;;;;5034495;28;20057;-66
2021/10/16 02:22:31;;;;;;;1.33;0.10;;;;;;;;;;5033986;28;20048;-65
2021/10/16 02:24:57;;;;;;;1.33;0.10;;;;;;;;;;5034337;28;20025;-65
2021/10/16 02:27:22;;;;;;;0.30;0.10;;;;;;;;;;5033876;28;20478;-64
2021/10/16 02:29:48;;;;;;;0.50;0.13;;;;;;;;;;5034258;28;20282;-65
2021/10/16 02:32:13;;;;;;;1.70;0.30;;;;;;;;;;5034260;28;20079;-65
2021/10/16 02:34:38;;;;;;;0.85;0.10;;;;;;;;;;5034206;28;20253;-64
2021/10/16 02:37:03;;;;;;;0.55;0.25;;;;;;;;;;5034021;28;20020;-65
2021/10/16 02:39:29;;;;;;;2.30;0.20;;;;;;;;;;5033738;28;20017;-64
2021/10/16 02:41:58;;;;;;;0.13;0.10;;;;;;;;;;5033797;28;20745;-64
2021/10/16 02:44:24;;;;;;;0.88;0.30;;;;;;;;;;5034149;28;20029;-64
2021/10/16 02:46:49;;;;;;;1.23;0.30;;;;;;;;;;5033849;28;20367;-65
2021/10/16 02:49:14;;;;;;;0.65;0.10;;;;;;;;;;5033620;28;20163;-64
2021/10/16 02:51:40;;;;;;;2.08;0.22;;;;;;;;;;5033619;28;20017;-65
2021/10/16 02:54:05;;;;;;;0.45;0.10;;;;;;;;;;5033620;28;20048;-65
2021/10/16 02:56:30;;;;;;;0.38;0.10;;;;;;;;;;5033606;28;20075;-65
2021/10/16 02:58:55;;;;;;;0.40;0.10;;;;;;;;;;5032546;28;20032;-64
2021/10/16 03:01:20;;;;;;;0.68;0.20;;;;;;;;;;5033084;28;20029;-65
2021/10/16 03:03:46;;;;;;;0.07;0.07;;;;;;;;;;5033355;28;20049;-65
2021/10/16 03:06:11;;;;;;;0.23;0.20;;;;;;;;;;5033627;28;20267;-64
2021/10/16 03:08:36;;;;;;;0.75;0.10;;;;;;;;;;5032254;28;20270;-64
2021/10/16 03:11:01;;;;;;;0.50;0.20;;;;;;;;;;5033309;28;20018;-65
2021/10/16 03:13:26;;;;;;;0.27;0.10;;;;;;;;;;5033328;28;20021;-64
2021/10/16 03:15:52;;;;;;;1.23;0.70;;;;;;;;;;5033505;28;20243;-65
2021/10/16 03:18:18;;;;;;;0.20;0.10;;;;;;;;;;5033471;28;20460;-65
2021/10/16 03:20:43;;;;;;;0.65;0.32;;;;;;;;;;5033430;28;20745;-65
2021/10/16 03:23:08;;;;;;;0.38;0.10;;;;;;;;;;5031990;28;20053;-65
2021/10/16 03:25:34;;;;;;;0.57;0.10;;;;;;;;;;5033118;28;20060;-65
2021/10/16 03:27:59;;;;;;;0.52;0.20;;;;;;;;;;5033402;28;20026;-64
2021/10/16 03:30:24;;;;;;;0.40;0.20;;;;;;;;;;5033070;28;20468;-64
2021/10/16 03:32:52;;;;;;;0.85;0.10;;;;;;;;;;5033371;28;20041;-64
2021/10/16 03:35:17;;;;;;;1.63;0.30;;;;;;;;;;5032935;28;20518;-64
2021/10/16 03:37:42;;;;;;;1.38;0.45;;;;;;;;;;5031927;28;20104;-64
2021/10/16 03:40:08;;;;;;;0.17;0.10;;;;;;;;;;5033142;28;20026;-64
2021/10/16 03:42:33;;;;;;;0.10;0.10;;;;;;;;;;5033114;28;20349;-65
2021/10/16 03:45:01;;;;;;;1.07;0.10;;;;;;;;;;5031716;28;20021;-64
2021/10/16 03:47:26;;;;;;;0.30;0.10;;;;;;;;;;5032841;28;20304;-64
2021/10/16 03:49:51;;;;;;;0.20;0.20;;;;;;;;;;5032817;28;20021;-64
2021/10/16 03:52:16;;;;;;;0.25;0.10;;;;;;;;;;5031786;28;20270;-65
2021/10/16 03:54:42;;;;;;;1.10;0.30;;;;;;;;;;5033059;28;20503;-64
2021/10/16 03:57:08;;;;;;;0.55;0.20;;;;;;;;;;5032896;28;20452;-65
2021/10/16 03:59:33;;;;;;;0.13;0.08;;;;;;;;;;5032908;28;20033;-65
2021/10/16 04:01:58;;;;;;;0.25;0.20;;;;;;;;;;5032812;28;20048;-64
2021/10/16 04:04:24;;;;;;;0.10;0.00;;;;;;;;;;5032755;28;20029;-65
2021/10/16 04:06:49;;;;;;;0.30;0.20;;;;;;;;;;5032685;28;20040;-65
2021/10/16 04:09:15;;;;;;;1.05;0.22;;;;;;;;;;5032938;28;20289;-65
2021/10/16 04:11:41;;;;;;;0.30;0.10;;;;;;;;;;5032651;28;20372;-64
2021/10/16 04:14:06;;;;;;;0.40;0.22;;;;;;;;;;5032958;28;20021;-64
2021/10/16 04:16:31;;;;;;;0.63;0.30;;;;;;;;;;5032547;28;20025;-64
2021/10/16 04:18:56;;;;;;;0.85;0.20;;;;;;;;;;5033148;28;20261;-65
2021/10/16 04:21:21;;;;;;;0.55;0.20;;;;;;;;;;5035766;28;20069;-65
2021/10/16 04:23:47;;;;;;;0.40;0.35;;;;;;;;;;5036465;28;20037;-65
2021/10/16 04:26:12;;;;;;;0.30;0.30;;;;;;;;;;5036241;28;20025;-65
2021/10/16 04:28:37;;;;;;;0.47;0.27;;;;;;;;;;5036285;28;20453;-65
2021/10/16 04:31:02;;;;;;;0.38;0.20;;;;;;;;;;5036519;28;20255;-65
2021/10/16 04:33:27;;;;;;;0.85;0.10;;;;;;;;;;5036383;28;20031;-64
2021/10/16 04:35:53;;;;;;;0.15;0.10;;;;;;;;;;5036250;28;20507;-64
2021/10/16 04:38:18;;;;;;;0.43;0.40;;;;;;;;;;5035995;28;20025;-64
2021/10/16 04:40:43;;;;;;;0.03;0.03;;;;;;;;;;5036104;28;20368;-65
2021/10/16 04:43:09;;;;;;;1.45;0.20;;;;;;;;;;5036174;28;20331;-65
2021/10/16 04:45:34;;;;;;;0.65;0.45;;;;;;;;;;5036073;28;20021;-65
2021/10/16 04:48:00;;;;;;;1.70;0.43;;;;;;;;;;5036124;28;20457;-65
2021/10/16 04:50:25;;;;;;;0.50;0.17;;;;;;;;;;5036094;28;20068;-65
2021/10/16 04:52:51;;;;;;;0.32;0.30;;;;;;;;;;5035839;28;20092;-65
2021/10/16 04:55:16;;;;;;;0.35;0.10;;;;;;;;;;5034638;28;20104;-64
2021/10/16 04:57:41;;;;;;;0.57;0.17;;;;;;;;;;5035855;28;20044;-64
2021/10/16 05:00:07;;;;;;;0.15;0.15;;;;;;;;;;5035621;28;20730;-65
2021/10/16 05:02:32;;;;;;;0.22;0.15;;;;;;;;;;5035605;28;20045;-64
2021/10/16 05:04:57;;;;;;;0.30;0.20;;;;;;;;;;5036028;28;20025;-64
2021/10/16 05:07:22;;;;;;;0.30;0.10;;;;;;;;;;5035665;28;20052;-64
2021/10/16 05:09:49;;;;;;;0.52;0.20;;;;;;;;;;5035657;28;20484;-65
2021/10/16 05:12:14;;;;;;;1.70;0.10;;;;;;;;;;5035246;28;20037;-64
2021/10/16 05:14:40;;;;;;;0.60;0.20;;;;;;;;;;5035643;28;20483;-65
2021/10/16 05:17:05;;;;;;;0.20;0.20;;;;;;;;;;5035552;28;20022;-64
2021/10/16 05:19:31;;;;;;;1.63;0.10;;;;;;;;;;5035536;28;20465;-64
2021/10/16 05:21:56;;;;;;;0.45;0.15;;;;;;;;;;5035572;28;20022;-65
2021/10/16 05:24:21;;;;;;;2.70;0.20;;;;;;;;;;5035162;28;20125;-64
2021/10/16 05:26:47;;;;;;;1.17;0.30;;;;;;;;;;5035380;28;20464;-64
2021/10/16 05:29:12;;;;;;;0.47;0.47;;;;;;;;;;5034169;28;20032;-63
2021/10/16 05:31:37;;;;;;;1.00;0.20;;;;;;;;;;5034377;28;20645;-64
2021/10/16 05:34:02;;;;;;;1.25;0.20;;;;;;;;;;5035357;28;20031;-64
2021/10/16 05:36:27;;;;;;;0.65;0.10;;;;;;;;;;5034338;28;20029;-64
2021/10/16 05:38:53;;;;;;;0.10;0.10;;;;;;;;;;5034792;28;20060;-64
2021/10/16 05:41:18;;;;;;;0.22;0.08;;;;;;;;;;5034678;28;20068;-65
2021/10/16 05:43:43;;;;;;;0.80;0.10;;;;;;;;;;5034993;28;20025;-64
2021/10/16 05:46:08;;;;;;;0.38;0.17;;;;;;;;;;5035021;28;20044;-67
2021/10/16 05:48:33;;;;;;;0.40;0.20;;;;;;;;;;5035100;28;20052;-64
2021/10/16 05:50:59;;;;;;;0.40;0.10;;;;;;;;;;5033351;28;20614;-65
2021/10/16 05:53:24;;;;;;;0.35;0.20;;;;;;;;;;5034765;28;20057;-65
2021/10/16 05:55:49;;;;;;;0.10;0.10;;;;;;;;;;5036548;28;20112;-65
2021/10/16 05:58:14;;;;;;;0.60;0.00;;;;;;;;;;5033515;28;20025;-64
2021/10/16 06:00:40;;;;;;;0.80;0.20;;;;;;;;;;5034474;28;20251;-65
2021/10/16 06:03:05;;;;;;;0.10;0.10;;;;;;;;;;5031812;28;20046;-64
2021/10/16 06:05:30;;;;;;;0.68;0.13;;;;;;;;;;5021632;28;20053;-64
2021/10/16 06:07:55;;;;;;;0.57;0.38;;;;;;;;;;5034567;28;20025;-67
2021/10/16 06:10:20;;;;;;;0.47;0.30;;;;;;;;;;5034518;28;20485;-66
2021/10/16 06:12:46;;;;;;;0.25;0.10;;;;;;;;;;5035031;28;20301;-65
2021/10/16 06:15:11;;;;;;;0.80;0.10;;;;;;;;;;5034550;28;20057;-66
2021/10/16 06:17:36;;;;;;;0.82;0.30;;;;;;;;;;5034174;28;20128;-66
2021/10/16 06:20:01;;;;;;;0.87;0.43;;;;;;;;;;5034577;28;20033;-66
2021/10/16 06:22:27;;;;;;;1.02;0.30;;;;;;;;;;5034217;28;20265;-66
2021/10/16 06:24:52;;;;;;;1.45;0.32;;;;;;;;;;5034163;28;20017;-65
2021/10/16 06:27:17;;;;;;;2.85;0.80;;;;;;;;;;5034320;28;20100;-65
2021/10/16 06:29:43;;;;;;;1.08;0.22;;;;;;;;;;5034250;28;20026;-65
2021/10/16 06:32:08;;;;;;;0.40;0.20;;;;;;;;;;5034311;28;20025;-65
2021/10/16 06:34:33;;;;;;;0.85;0.38;;;;;;;;;;5034144;28;20251;-65
2021/10/16 06:37:02;;;;;;;1.08;0.55;;;;;;;;;;5034074;28;20017;-66
2021/10/16 06:39:27;;;;;;;0.52;0.20;;;;;;;;;;5033945;28;20384;-66
2021/10/16 06:41:52;;;;;;;0.20;0.20;;;;;;;;;;5034195;28;20017;-66
2021/10/16 06:44:18;;;;;;;0.87;0.10;;;;;;;;;;5033721;28;20029;-66
2021/10/16 06:46:43;;;;;;;1.00;0.30;;;;;;;;;;5033963;28;20729;-66
2021/10/16 06:49:09;;;;;;;0.20;0.10;;;;;;;;;;5033570;28;20018;-67
2021/10/16 06:51:34;;;;;;;0.80;0.20;;;;;;;;;;5033525;28;20017;-66
2021/10/16 06:53:59;;;;;;;0.10;0.00;;;;;;;;;;5033728;28;20377;-66
2021/10/16 06:56:26;;;;;;;0.40;0.13;;;;;;;;;;5033798;28;20464;-66
2021/10/16 06:58:51;;;;;;;0.30;0.10;;;;;;;;;;5033544;28;20013;-66
2021/10/16 07:01:16;;;;;;;0.45;0.30;;;;;;;;;;5033716;28;20100;-66
2021/10/16 07:03:41;;;;;;;0.95;0.30;;;;;;;;;;5033474;28;20050;-66
2021/10/16 07:06:08;;;;;;;0.57;0.20;;;;;;;;;;5033408;28;20067;-67
2021/10/16 07:08:33;;;;;;;0.32;0.20;;;;;;;;;;5033496;28;20246;-66
2021/10/16 07:10:59;;;;;;;0.80;0.23;;;;;;;;;;5033378;28;20048;-66
2021/10/16 07:13:25;;;;;;;0.20;0.20;;;;;;;;;;5033551;28;20346;-66
2021/10/16 07:15:50;;;;;;;0.30;0.17;;;;;;;;;;5033588;28;20365;-66
2021/10/16 07:18:16;;;;;;;0.55;0.20;;;;;;;;;;5033412;28;20032;-66
2021/10/16 07:20:41;;;;;;;0.55;0.22;;;;;;;;;;5033169;28;20420;-66
2021/10/16 07:23:07;;;;;;;1.23;0.50;;;;;;;;;;5033550;28;20415;-67
2021/10/16 07:25:32;;;;;;;2.05;0.20;;;;;;;;;;5033137;28;20748;-66
2021/10/16 07:27:58;;;;;;;0.57;0.25;;;;;;;;;;5033431;28;20112;-66
2021/10/16 07:30:24;;;;;;;0.45;0.10;;;;;;;;;;5033423;28;20373;-66
2021/10/16 07:32:49;;;;;;;0.50;0.20;;;;;;;;;;5033288;28;20137;-66
2021/10/16 07:35:15;;;;;;;1.25;0.25;;;;;;;;;;5033294;28;20018;-65
2021/10/16 07:37:41;;;;;;;0.45;0.10;;;;;;;;;;5033133;28;20025;-66
2021/10/16 07:40:08;;;;;;;0.75;0.28;;;;;;;;;;5033064;28;20029;-65
2021/10/16 07:42:33;;;;;;;1.00;0.38;;;;;;;;;;5033148;28;20052;-65
2021/10/16 07:44:58;;;;;;;0.40;0.20;;;;;;;;;;5033110;28;20376;-65
2021/10/16 07:47:26;;;;;;;0.10;0.10;;;;;;;;;;5033091;28;20300;-65
2021/10/16 07:49:52;;;;;;;1.10;0.17;;;;;;;;;;5033003;28;20014;-66
2021/10/16 07:52:17;;;;;;;0.88;0.38;;;;;;;;;;5032743;28;20507;-65
2021/10/16 07:54:43;;;;;;;0.77;0.30;;;;;;;;;;5033582;28;20056;-65
2021/10/16 07:57:08;;;;;;;0.73;0.13;;;;;;;;;;5037109;28;20108;-65
2021/10/16 07:59:33;;;;;;;0.45;0.40;;;;;;;;;;5037048;28;20451;-65
2021/10/16 08:01:59;;;;;;;0.40;0.32;;;;;;;;;;5036900;28;20056;-65
2021/10/16 08:04:24;;;;;;;0.50;0.17;;;;;;;;;;5036669;28;20039;-65
2021/10/16 08:06:49;;;;;;;0.23;0.10;;;;;;;;;;5037185;28;20052;-66
2021/10/16 08:09:14;;;;;;;0.20;0.10;;;;;;;;;;5036658;28;20758;-65
2021/10/16 08:11:39;;;;;;;0.40;0.30;;;;;;;;;;5037084;28;20460;-65
2021/10/16 08:14:05;;;;;;;0.05;0.03;;;;;;;;;;5036646;28;20258;-65
2021/10/16 08:16:30;;;;;;;0.20;0.10;;;;;;;;;;5036692;28;20028;-65
2021/10/16 08:18:56;;;;;;;0.30;0.10;;;;;;;;;;5036665;28;20031;-65
2021/10/16 08:21:22;;;;;;;0.30;0.10;;;;;;;;;;5036367;28;20022;-65
2021/10/16 08:23:47;;;;;;;0.20;0.03;;;;;;;;;;5036667;28;20033;-65
2021/10/16 08:26:12;;;;;;;0.52;0.30;;;;;;;;;;5036493;28;20096;-65
2021/10/16 08:28:37;;;;;;;0.23;0.17;;;;;;;;;;5036217;28;20013;-65
2021/10/16 08:31:04;;;;;;;0.50;0.13;;;;;;;;;;5036774;28;20278;-65
2021/10/16 08:33:33;;;;;;;0.22;0.08;;;;;;;;;;5036353;28;20584;-65
2021/10/16 08:35:59;;;;;;;0.35;0.25;;;;;;;;;;5036540;28;20097;-66
2021/10/16 08:38:24;;;;;;;0.50;0.10;;;;;;;;;;5036123;28;20064;-65
2021/10/16 08:40:50;;;;;;;1.58;0.43;;;;;;;;;;5036445;28;20030;-66
2021/10/16 08:43:15;;;;;;;0.45;0.10;;;;;;;;;;5036045;28;20021;-65
2021/10/16 08:45:40;;;;;;;0.85;0.47;;;;;;;;;;5036258;28;20457;-66
2021/10/16 08:48:06;;;;;;;0.57;0.20;;;;;;;;;;5036316;28;20480;-65
2021/10/16 08:50:32;;;;;;;0.45;0.15;;;;;;;;;;5035919;28;20053;-66
2021/10/16 08:52:57;;;;;;;0.20;0.10;;;;;;;;;;5036144;28;20056;-66
2021/10/16 08:55:22;;;;;;;0.95;0.15;;;;;;;;;;5036066;28;20014;-66
2021/10/16 08:57:50;;;;;;;1.38;0.25;;;;;;;;;;5035824;28;20020;-67
2021/10/16 09:00:33;;;;;;;0.45;0.10;;;;;;;;;;5035933;28;20042;-65
2021/10/16 09:03:13;;;;;;;0.27;0.10;;;;;;;;;;5035783;28;20084;-67
2021/10/16 09:05:38;;;;;;;0.30;0.10;;;;;;;;;;5035805;28;20255;-65
2021/10/16 09:08:03;;;;;;;0.40;0.17;;;;;;;;;;5035888;28;20465;-66
2021/10/16 09:10:28;;;;;;;0.52;0.10;;;;;;;;;;5035698;28;20274;-66
2021/10/16 09:12:54;;;;;;;0.17;0.10;;;;;;;;;;5035560;28;20022;-65
2021/10/16 09:15:21;;;;;;;0.28;0.10;;;;;;;;;;5035877;28;20045;-65
2021/10/16 09:18:05;;;;;;;0.30;0.30;;;;;;;;;;5035423;28;20837;-65
2021/10/16 09:20:37;;;;;;;1.20;0.20;;;;;;;;;;5035637;28;20383;-65
2021/10/16 09:23:04;;;;;;;0.10;0.10;;;;;;;;;;5035433;28;20109;-65
2021/10/16 09:25:29;;;;;;;2.00;0.30;;;;;;;;;;5035483;28;20017;-65
2021/10/16 09:28:17;;;;;;;0.28;0.10;;;;;;;;;;5035554;28;20472;-66
2021/10/16 09:30:45;;;;;;;0.20;0.10;;;;;;;;;;5035436;28;20113;-66
2021/10/16 09:33:11;;;;;;;1.02;0.25;;;;;;;;;;5035384;28;20059;-67
2021/10/16 09:35:36;;;;;;;0.57;0.35;;;;;;;;;;5035331;28;20096;-66
2021/10/16 09:38:01;;;;;;;1.23;0.10;;;;;;;;;;5035137;28;20376;-67
2021/10/16 09:40:34;;;;;;;0.90;0.10;;;;;;;;;;5035067;28;20032;-66
2021/10/16 09:42:59;;;;;;;0.08;0.08;;;;;;;;;;5035140;28;20028;-66
2021/10/16 09:45:24;;;;;;;0.30;0.30;;;;;;;;;;5035094;28;20021;-65
2021/10/16 09:47:54;;;;;;;0.90;0.20;;;;;;;;;;5035087;28;20029;-66
2021/10/16 09:50:19;;;;;;;0.43;0.10;;;;;;;;;;5034920;28;20372;-66
2021/10/16 09:52:45;;;;;;;0.30;0.15;;;;;;;;;;5034916;28;20092;-66
2021/10/16 09:55:12;;;;;;;0.30;0.03;;;;;;;;;;5035066;28;20030;-66
2021/10/16 09:57:39;;;;;;;0.90;0.20;;;;;;;;;;5034916;28;20018;-66
2021/10/16 10:00:05;;;;;;;0.00;0.00;;;;;;;;;;5034916;28;20044;-66
2021/10/16 10:02:31;;;;;;;1.27;0.10;;;;;;;;;;5034172;28;20045;-66
2021/10/16 10:04:56;;;;;;;0.68;0.17;;;;;;;;;;5034641;28;20518;-65
2021/10/16 10:07:23;;;;;;;0.32;0.10;;;;;;;;;;5034752;28;20053;-65
2021/10/16 10:09:49;;;;;;;0.10;0.00;;;;;;;;;;5034703;28;20037;-65
2021/10/16 10:12:15;;;;;;;2.28;0.30;;;;;;;;;;5034756;28;20039;-65
2021/10/16 10:14:41;;;;;;;0.30;0.13;;;;;;;;;;5034403;28;20373;-65
2021/10/16 10:17:07;;;;;;;0.20;0.00;;;;;;;;;;5034664;28;20105;-65
2021/10/16 10:19:53;;;;;;;1.45;0.10;;;;;;;;;;5034005;28;20097;-65
2021/10/16 10:22:19;;;;;;;0.45;0.20;;;;;;;;;;5034507;28;20096;-65
2021/10/16 10:24:46;;;;;;;0.63;0.17;;;;;;;;;;5034288;28;20398;-66
2021/10/16 10:27:12;;;;;;;0.50;0.20;;;;;;;;;;5034115;28;20029;-65
2021/10/16 10:29:39;;;;;;;1.17;0.32;;;;;;;;;;5033034;28;20017;-66
2021/10/16 10:32:05;;;;;;;0.10;0.00;;;;;;;;;;5034334;28;20062;-66
2021/10/16 10:34:32;;;;;;;1.23;0.25;;;;;;;;;;5033792;28;20524;-66
2021/10/16 10:36:57;;;;;;;0.32;0.10;;;;;;;;;;5034030;28;20029;-66
2021/10/16 10:39:35;;;;;;;0.38;0.13;;;;;;;;;;5034024;28;20025;-66
2021/10/16 10:42:12;;;;;;;0.35;0.15;;;;;;;;;;5034128;28;20025;-66
2021/10/16 10:44:45;;;;;;;0.28;0.08;;;;;;;;;;5033924;28;20030;-66
2021/10/16 10:47:19;;;;;;;0.20;0.00;;;;;;;;;;5033779;28;20061;-65
2021/10/16 10:49:45;;;;;;;0.65;0.20;;;;;;;;;;5033927;28;20028;-65
2021/10/16 10:52:10;;;;;;;0.52;0.10;;;;;;;;;;5033947;28;20021;-65
2021/10/16 10:54:37;;;;;;;0.10;0.10;;;;;;;;;;5033781;28;20029;-65
2021/10/16 10:57:02;;;;;;;0.88;0.20;;;;;;;;;;5033797;28;20400;-65
2021/10/16 10:59:27;;;;;;;2.05;0.30;;;;;;;;;;5033738;28;20033;-64
2021/10/16 11:02:01;;;;;;;0.77;0.10;;;;;;;;;;5033512;28;20034;-65
2021/10/16 11:04:35;;;;;;;0.20;0.10;;;;;;;;;;5033824;28;20680;-65
2021/10/16 11:07:03;;;;;;;0.88;0.10;;;;;;;;;;5033516;28;20020;-65
2021/10/16 11:09:28;;;;;;;0.80;0.13;;;;;;;;;;5033439;28;20033;-67
2021/10/16 11:11:53;;;;;;;0.05;0.05;;;;;;;;;;5033882;28;20020;-66
2021/10/16 11:14:18;;;;;;;0.43;0.17;;;;;;;;;;5033463;28;20025;-66
2021/10/16 11:16:57;;;;;;;0.00;0.00;;;;;;;;;;5033375;28;20018;-65
2021/10/16 11:19:22;;;;;;;0.45;0.10;;;;;;;;;;5033594;28;20021;-65
2021/10/16 11:21:57;;;;;;;0.10;0.00;;;;;;;;;;5033598;28;20087;-66
2021/10/16 11:24:23;;;;;;;0.40;0.10;;;;;;;;;;5033550;28;20025;-65
2021/10/16 11:26:51;;;;;;;0.32;0.10;;;;;;;;;;5033564;28;20376;-65
2021/10/16 11:29:29;;;;;;;0.10;0.10;;;;;;;;;;5032618;28;20052;-65
2021/10/16 11:32:12;;;;;;;0.20;0.10;;;;;;;;;;5033470;28;20045;-65
2021/10/16 11:34:38;;;;;;;0.60;0.03;;;;;;;;;;5033161;28;20452;-66
2021/10/16 11:37:03;;;;;;;0.20;0.10;;;;;;;;;;5033419;28;20013;-65
2021/10/16 11:39:29;;;;;;;1.02;0.20;;;;;;;;;;5033080;28;20057;-66
2021/10/16 11:41:57;;;;;;;0.40;0.10;;;;;;;;;;5033055;28;20097;-65
2021/10/16 11:44:23;;;;;;;0.50;0.10;;;;;;;;;;5033255;28;20025;-66
2021/10/16 11:47:08;;;;;;;0.30;0.20;;;;;;;;;;5033320;28;20033;-65
2021/10/16 11:49:33;;;;;;;0.50;0.20;;;;;;;;;;5032310;28;20037;-65
2021/10/16 11:51:59;;;;;;;0.22;0.10;;;;;;;;;;5033186;28;20031;-67
2021/10/16 11:54:25;;;;;;;0.28;0.08;;;;;;;;;;5032959;28;20056;-66
2021/10/16 11:56:54;;;;;;;0.57;0.15;;;;;;;;;;5033198;28;20017;-66
2021/10/16 11:59:20;;;;;;;0.55;0.17;;;;;;;;;;5032958;28;20017;-66
2021/10/16 12:01:45;;;;;;;0.30;0.10;;;;;;;;;;5032740;28;20427;-66
2021/10/16 12:04:11;;;;;;;1.35;0.28;;;;;;;;;;5033123;28;20026;-66
2021/10/16 12:06:36;;;;;;;0.47;0.17;;;;;;;;;;5032981;28;20681;-66
2021/10/16 12:09:03;;;;;;;0.43;0.10;;;;;;;;;;5032895;28;20112;-66
2021/10/16 12:11:30;;;;;;;0.25;0.20;;;;;;;;;;5032824;28;20037;-66
2021/10/16 12:13:55;;;;;;;0.43;0.10;;;;;;;;;;5032998;28;20471;-66
2021/10/16 12:16:22;;;;;;;0.98;0.10;;;;;;;;;;5032924;28;20037;-66
2021/10/16 12:18:52;;;;;;;1.38;0.30;;;;;;;;;;5032954;28;20056;-66
2021/10/16 12:21:28;;;;;;;0.28;0.10;;;;;;;;;;5032816;28;20099;-66
2021/10/16 12:23:53;;;;;;;0.52;0.10;;;;;;;;;;5032866;28;20040;-65
2021/10/16 12:26:20;;;;;;;0.60;0.17;;;;;;;;;;5032628;28;20022;-65
2021/10/16 12:28:46;;;;;;;0.52;0.10;;;;;;;;;;5032926;28;20115;-66
2021/10/16 12:31:11;;;;;;;1.08;0.20;;;;;;;;;;5033024;28;20189;-65
2021/10/16 12:33:56;;;;;;;0.60;0.10;;;;;;;;;;5032638;28;20432;-65
2021/10/16 12:36:21;;;;;;;;;;;;;;;;;;5033108;28;20022;-65
2021/10/16 12:38:46;;;;;;;0.30;0.10;;;;;;;;;;5032834;28;19905;-65
2021/10/16 12:41:22;;;;;;;0.40;0.10;;;;;;;;;;5033807;28;20040;-65
2021/10/16 12:43:47;;;;;;;0.10;0.10;;;;;;;;;;5036432;28;20041;-66
2021/10/16 12:46:28;;;;;;;1.08;0.43;;;;;;;;;;5036252;28;20021;-65
2021/10/16 12:48:54;;;;;;;0.45;0.15;;;;;;;;;;5036290;28;20017;-65
2021/10/16 12:51:38;;;;;;;0.77;0.10;;;;;;;;;;5035988;28;20022;-65
2021/10/16 12:54:04;;;;;;;1.50;0.10;;;;;;;;;;5036320;28;20014;-65
2021/10/16 12:56:29;;;;;;;0.45;0.32;;;;;;;;;;5035900;28;20028;-65
2021/10/16 12:58:54;;;;;;;0.90;0.17;;;;;;;;;;5035960;28;20719;-65
2021/10/16 13:01:19;;;;;;;1.45;0.28;;;;;;;;;;5035874;28;20060;-66
2021/10/16 13:03:46;;;;;;;0.83;0.10;;;;;;;;;;5035939;28;20021;-65
2021/10/16 13:06:11;;;;;;;0.82;0.20;;;;;;;;;;5035809;28;20258;-66
2021/10/16 13:08:36;;;;;;;0.30;0.10;;;;;;;;;;5035719;28;20049;-65
2021/10/16 13:11:02;;;;;;;0.68;0.10;;;;;;;;;;5035895;28;20261;-66
2021/10/16 13:13:27;;;;;;;0.73;0.20;;;;;;;;;;5035599;28;20031;-66
2021/10/16 13:15:52;;;;;;;0.43;0.30;;;;;;;;;;5035700;28;20022;-65
2021/10/16 13:18:17;;;;;;;0.95;0.30;;;;;;;;;;5035758;28;20080;-66
2021/10/16 13:20:43;;;;;;;0.52;0.10;;;;;;;;;;5035594;28;20104;-65
2021/10/16 13:23:08;;;;;;;0.32;0.10;;;;;;;;;;5035666;28;20108;-66
2021/10/16 13:25:33;;;;;;;0.52;0.20;;;;;;;;;;5035453;28;20029;-65
2021/10/16 13:27:59;;;;;;;1.33;0.20;;;;;;;;;;5035239;28;20051;-66
2021/10/16 13:30:25;;;;;;;0.20;0.10;;;;;;;;;;5035106;28;20025;-65
2021/10/16 13:32:50;;;;;;;0.10;0.10;;;;;;;;;;5035574;28;20017;-66
2021/10/16 13:35:16;;;;;;;0.17;0.13;;;;;;;;;;5035470;28;20018;-65
2021/10/16 13:37:41;;;;;;;0.20;0.13;;;;;;;;;;5035100;28;20028;-65
2021/10/16 13:40:07;;;;;;;1.10;0.52;;;;;;;;;;5035256;28;20037;-66
2021/10/16 13:42:35;;;;;;;0.20;0.10;;;;;;;;;;5035108;28;20071;-65
2021/10/16 13:45:03;;;;;;;0.15;0.10;;;;;;;;;;5035396;28;20021;-67
2021/10/16 13:47:28;;;;;;;0.08;0.08;;;;;;;;;;5035105;28;20415;-65
2021/10/16 13:49:53;;;;;;;0.73;0.20;;;;;;;;;;5035004;28;20033;-66
2021/10/16 13:52:19;;;;;;;1.40;0.10;;;;;;;;;;5034433;28;20032;-65
2021/10/16 13:54:45;;;;;;;0.30;0.05;;;;;;;;;;5034676;28;20499;-65
2021/10/16 13:57:10;;;;;;;1.27;0.10;;;;;;;;;;5034798;28;20021;-65
2021/10/16 13:59:35;;;;;;;1.40;0.28;;;;;;;;;;5034998;28;20349;-66
2021/10/16 14:02:00;;;;;;;1.37;0.30;;;;;;;;;;5034850;28;20064;-66
2021/10/16 14:04:27;;;;;;;0.23;0.10;;;;;;;;;;5034668;28;20713;-66
2021/10/16 14:06:52;;;;;;;1.08;0.55;;;;;;;;;;5034573;28;20289;-66
2021/10/16 14:09:17;;;;;;;0.17;0.13;;;;;;;;;;5034710;28;20029;-65
2021/10/16 14:11:42;;;;;;;0.27;0.10;;;;;;;;;;5034379;28;20032;-65
2021/10/16 14:14:07;;;;;;;0.30;0.10;;;;;;;;;;5034487;28;20021;-65
2021/10/16 14:16:33;;;;;;;0.68;0.20;;;;;;;;;;5034332;28;20040;-65
2021/10/16 14:18:59;;;;;;;0.70;0.10;;;;;;;;;;5034597;28;20061;-65
2021/10/16 14:21:24;;;;;;;0.35;0.10;;;;;;;;;;5034438;28;20032;-65
2021/10/16 14:23:50;;;;;;;0.57;0.13;;;;;;;;;;5034552;28;20026;-66
2021/10/16 14:26:15;;;;;;;0.38;0.10;;;;;;;;;;5034407;28;20052;-65
2021/10/16 14:28:40;;;;;;;0.50;0.10;;;;;;;;;;5034161;28;20080;-66
2021/10/16 14:31:06;;;;;;;0.47;0.20;;;;;;;;;;5034477;28;20484;-65
2021/10/16 14:33:31;;;;;;;0.40;0.20;;;;;;;;;;5034253;28;20052;-65
2021/10/16 14:35:57;;;;;;;0.25;0.20;;;;;;;;;;5034325;28;20464;-65
2021/10/16 14:38:22;;;;;;;0.98;0.45;;;;;;;;;;5033827;28;20384;-65